Eser — 3FAO4 — position and weather

sailwx.info

Track history (hours):
 
Tides and Currents Weather Stations Pressure Air Temp Water Temp Dewpoint Dewpoint Depression Visibility Wind Speed Wind Dir Waves Ship Positions

Eser

Last reported at 2018-Jan-28 12:37 UTC. Time now 2018-Feb-26 03:45 UTC.
Position N 07°50' W 014°05'.
Warning: this ship's position is 28 days out of date.

Length 99 m; draft 4.3 m.

Type: Cargo ship. MMSI: 353595000.

Date/timePositionNaut miles runAvg speedWind from/ knotsBaromVisibWave heightAir tempDewpointWater temp
2018-Jan-28 12:37N 07°50' W 014°05'41 9.9
2018-Jan-28 08:27N 08°20' W 014°33'510.3
2018-Jan-28 08:00N 08°24' W 014°36'610.4
2018-Jan-28 07:26N 08°28' W 014°40'1410.5
2018-Jan-28 06:04N 08°39' W 014°50'7710.3
2018-Jan-27 22:33N 09°37' W 015°41'010.2
2018-Jan-27 22:30N 09°37' W 015°42'510.3
2018-Jan-27 22:00N 09°41' W 015°45'510.2
2018-Jan-27 21:30N 09°45' W 015°48'510.3
2018-Jan-27 21:00N 09°49' W 015°52'510.1
2018-Jan-27 20:30N 09°52' W 015°55'510.3
2018-Jan-27 20:00N 09°56' W 015°59'510.1
2018-Jan-27 19:29N 10°00' W 016°02'610.0
2018-Jan-27 18:55N 10°05' W 016°06'410.0
2018-Jan-27 18:30N 10°08' W 016°09'5 9.9
2018-Jan-27 18:00N 10°11' W 016°12'5 9.7
2018-Jan-27 17:30N 10°15' W 016°16'5 9.7
2018-Jan-27 16:59N 10°19' W 016°19'5 9.6
2018-Jan-27 16:30N 10°22' W 016°22'5 9.6
2018-Jan-27 16:00N 10°26' W 016°25'5 9.5
2018-Jan-27 15:30N 10°29' W 016°28'5 9.3
2018-Jan-27 15:01N 10°33' W 016°31'43 9.5
2018-Jan-27 10:33N 11°05' W 017°00'110.1
2018-Jan-27 10:30N 11°05' W 017°00'510.1
2018-Jan-27 09:59N 11°09' W 017°04'1310.1
2018-Jan-27 08:41N 11°21' W 017°10'  
2018-Jan-20 00:34N 09°55' W 015°57'1 8.6
2018-Jan-20 00:29N 09°54' W 015°57'4 8.7
2018-Jan-19 23:59N 09°51' W 015°54'4 8.8
2018-Jan-19 23:30N 09°48' W 015°51'5 9.0
2018-Jan-19 23:00N 09°44' W 015°48'5 9.1
2018-Jan-19 22:30N 09°41' W 015°45'4 9.0
2018-Jan-19 22:00N 09°38' W 015°42'5 9.1
2018-Jan-19 21:30N 09°34' W 015°39'5 9.2
2018-Jan-19 21:00N 09°31' W 015°36'5 9.4
2018-Jan-19 20:30N 09°27' W 015°32'5 9.7
2018-Jan-19 20:01N 09°24' W 015°29'510.0
2018-Jan-19 19:31N 09°20' W 015°26'5 9.8
2018-Jan-19 19:00N 09°16' W 015°22'5 9.4
2018-Jan-19 18:30N 09°13' W 015°19'5 9.4
2018-Jan-19 18:00N 09°09' W 015°16'5 9.3
2018-Jan-19 17:30N 09°05' W 015°13'4 9.2
2018-Jan-19 17:00N 09°02' W 015°10'4 8.9
2018-Jan-19 16:30N 08°59' W 015°07'4 8.7
2018-Jan-19 16:01N 08°56' W 015°04'6 8.9
2018-Jan-19 15:19N 08°51' W 015°00'3 9.1
2018-Jan-19 15:01N 08°49' W 014°58'5 9.0
2018-Jan-19 14:30N 08°46' W 014°55'5 9.0
2018-Jan-19 14:00N 08°42' W 014°52'5 9.0
2018-Jan-19 13:30N 08°39' W 014°49'5 8.9
2018-Jan-19 13:00N 08°35' W 014°46'4 9.0
2018-Jan-19 12:30N 08°32' W 014°43'5 9.0
2018-Jan-19 12:00N 08°29' W 014°40'5 9.2
2018-Jan-19 11:30N 08°25' W 014°37'5 9.1
2018-Jan-19 11:00N 08°22' W 014°34'4 8.8
2018-Jan-19 10:30N 08°18' W 014°31'4 7.8
2018-Jan-19 10:00N 08°15' W 014°28'4 7.9
2018-Jan-19 09:30N 08°13' W 014°26'4 8.1
2018-Jan-19 09:00N 08°10' W 014°23'7 8.2
2018-Jan-19 08:08N 08°04' W 014°18'1 8.2
2018-Jan-19 08:00N 08°04' W 014°17'4 8.1
2018-Jan-19 07:30N 08°00' W 014°15'4 8.1
2018-Jan-19 07:00N 07°57' W 014°12'4 7.9
2018-Jan-19 06:30N 07°54' W 014°09'4 8.2
2018-Jan-19 05:58N 07°51' W 014°06'5 8.3
2018-Jan-19 05:25N 07°49' W 014°02'3 8.2
2018-Jan-19 05:00N 07°47' W 013°60'5 8.2
2018-Jan-19 04:24N 07°44' W 013°55'19 8.2
2018-Jan-19 02:06N 07°35' W 013°39'1 8.0
2018-Jan-19 02:00N 07°35' W 013°38'4 7.8
2018-Jan-19 01:29N 07°32' W 013°35'  
Track history (hours):
 
Tides and Currents Weather Stations Pressure Air Temp Water Temp Dewpoint Dewpoint Depression Visibility Wind Speed Wind Dir Waves Ship Positions

Eser

Last reported at 2018-Jan-28 12:37 UTC. Time now 2018-Feb-26 03:45 UTC.
Position N 07°50' W 014°05'.
Warning: this ship's position is 28 days out of date.

Length 99 m; draft 4.3 m.

Type: Cargo ship. MMSI: 353595000.

Date/timePositionNaut miles runAvg speedWind from/ knotsBaromVisibWave heightAir tempDewpointWater temp
2018-Jan-28 12:37N 07°50' W 014°05'41 9.9
2018-Jan-28 08:27N 08°20' W 014°33'510.3
2018-Jan-28 08:00N 08°24' W 014°36'610.4
2018-Jan-28 07:26N 08°28' W 014°40'1410.5
2018-Jan-28 06:04N 08°39' W 014°50'7710.3
2018-Jan-27 22:33N 09°37' W 015°41'010.2
2018-Jan-27 22:30N 09°37' W 015°42'510.3
2018-Jan-27 22:00N 09°41' W 015°45'510.2
2018-Jan-27 21:30N 09°45' W 015°48'510.3
2018-Jan-27 21:00N 09°49' W 015°52'510.1
2018-Jan-27 20:30N 09°52' W 015°55'510.3
2018-Jan-27 20:00N 09°56' W 015°59'510.1
2018-Jan-27 19:29N 10°00' W 016°02'610.0
2018-Jan-27 18:55N 10°05' W 016°06'410.0
2018-Jan-27 18:30N 10°08' W 016°09'5 9.9
2018-Jan-27 18:00N 10°11' W 016°12'5 9.7
2018-Jan-27 17:30N 10°15' W 016°16'5 9.7
2018-Jan-27 16:59N 10°19' W 016°19'5 9.6
2018-Jan-27 16:30N 10°22' W 016°22'5 9.6
2018-Jan-27 16:00N 10°26' W 016°25'5 9.5
2018-Jan-27 15:30N 10°29' W 016°28'5 9.3
2018-Jan-27 15:01N 10°33' W 016°31'43 9.5
2018-Jan-27 10:33N 11°05' W 017°00'110.1
2018-Jan-27 10:30N 11°05' W 017°00'510.1
2018-Jan-27 09:59N 11°09' W 017°04'1310.1
2018-Jan-27 08:41N 11°21' W 017°10'  
2018-Jan-20 00:34N 09°55' W 015°57'1 8.6
2018-Jan-20 00:29N 09°54' W 015°57'4 8.7
2018-Jan-19 23:59N 09°51' W 015°54'4 8.8
2018-Jan-19 23:30N 09°48' W 015°51'5 9.0
2018-Jan-19 23:00N 09°44' W 015°48'5 9.1
2018-Jan-19 22:30N 09°41' W 015°45'4 9.0
2018-Jan-19 22:00N 09°38' W 015°42'5 9.1
2018-Jan-19 21:30N 09°34' W 015°39'5 9.2
2018-Jan-19 21:00N 09°31' W 015°36'5 9.4
2018-Jan-19 20:30N 09°27' W 015°32'5 9.7
2018-Jan-19 20:01N 09°24' W 015°29'510.0
2018-Jan-19 19:31N 09°20' W 015°26'5 9.8
2018-Jan-19 19:00N 09°16' W 015°22'5 9.4
2018-Jan-19 18:30N 09°13' W 015°19'5 9.4
2018-Jan-19 18:00N 09°09' W 015°16'5 9.3
2018-Jan-19 17:30N 09°05' W 015°13'4 9.2
2018-Jan-19 17:00N 09°02' W 015°10'4 8.9
2018-Jan-19 16:30N 08°59' W 015°07'4 8.7
2018-Jan-19 16:01N 08°56' W 015°04'6 8.9
2018-Jan-19 15:19N 08°51' W 015°00'3 9.1
2018-Jan-19 15:01N 08°49' W 014°58'5 9.0
2018-Jan-19 14:30N 08°46' W 014°55'5 9.0
2018-Jan-19 14:00N 08°42' W 014°52'5 9.0
2018-Jan-19 13:30N 08°39' W 014°49'5 8.9
2018-Jan-19 13:00N 08°35' W 014°46'4 9.0
2018-Jan-19 12:30N 08°32' W 014°43'5 9.0
2018-Jan-19 12:00N 08°29' W 014°40'5 9.2
2018-Jan-19 11:30N 08°25' W 014°37'5 9.1
2018-Jan-19 11:00N 08°22' W 014°34'4 8.8
2018-Jan-19 10:30N 08°18' W 014°31'4 7.8
2018-Jan-19 10:00N 08°15' W 014°28'4 7.9
2018-Jan-19 09:30N 08°13' W 014°26'4 8.1
2018-Jan-19 09:00N 08°10' W 014°23'7 8.2
2018-Jan-19 08:08N 08°04' W 014°18'1 8.2
2018-Jan-19 08:00N 08°04' W 014°17'4 8.1
2018-Jan-19 07:30N 08°00' W 014°15'4 8.1
2018-Jan-19 07:00N 07°57' W 014°12'4 7.9
2018-Jan-19 06:30N 07°54' W 014°09'4 8.2
2018-Jan-19 05:58N 07°51' W 014°06'5 8.3
2018-Jan-19 05:25N 07°49' W 014°02'3 8.2
2018-Jan-19 05:00N 07°47' W 013°60'5 8.2
2018-Jan-19 04:24N 07°44' W 013°55'19 8.2
2018-Jan-19 02:06N 07°35' W 013°39'1 8.0
2018-Jan-19 02:00N 07°35' W 013°38'4 7.8
2018-Jan-19 01:29N 07°32' W 013°35'  

Dump ship's entire track history